Time;durP1;ratioP1;P1;durP2;ratioP2;P2;SDS_P1;SDS_P2;PMS_P1;PMS_P2;Temp;Humidity;BMP_temperature;BMP_pressure;BME280_temperature;BME280_humidity;BME280_pressure;Samples;Min_cycle;Max_cycle;Signal;HPM_P1;HPM_P2
2022/03/21 00:01:40;;;;;;;41.60;27.60;;;;;;;;;;763049;179;916879;-61
2022/03/21 00:04:06;;;;;;;45.80;27.90;;;;;;;;;;779234;179;916729;-62
2022/03/21 00:06:32;;;;;;;37.27;28.23;;;;;;;;;;779037;179;878207;-61
2022/03/21 00:08:58;;;;;;;47.00;30.63;;;;;;;;;;780733;179;633459;-62
2022/03/21 00:11:24;;;;;;;45.57;28.80;;;;;;;;;;772029;180;634895;-62
2022/03/21 00:13:53;;;;;;;42.63;28.37;;;;;;;;;;774140;180;625882;-61
2022/03/21 00:16:15;;;;;;;45.93;26.90;;;;;;;;;;778073;179;636311;-62
2022/03/21 00:18:41;;;;;;;46.57;29.10;;;;;;;;;;773434;180;630810;-61
2022/03/21 00:21:07;;;;;;;43.83;28.03;;;;;;;;;;766954;183;639136;-62
2022/03/21 00:23:33;;;;;;;40.83;26.67;;;;;;;;;;767744;178;918772;-62
2022/03/21 00:25:58;;;;;;;46.57;29.60;;;;;;;;;;771595;178;918885;-61
2022/03/21 00:28:24;;;;;;;46.47;29.80;;;;;;;;;;779647;178;714847;-61
2022/03/21 00:30:51;;;;;;;50.95;30.80;;;;;;;;;;774740;180;923275;-60
2022/03/21 00:33:17;;;;;;;46.40;30.10;;;;;;;;;;775417;180;918844;-62
2022/03/21 00:35:42;;;;;;;47.40;30.57;;;;;;;;;;780266;179;920291;-60
2022/03/21 00:38:10;;;;;;;47.03;30.85;;;;;;;;;;777656;179;914588;-62
2022/03/21 00:40:33;;;;;;;50.53;29.67;;;;;;;;;;781471;177;919074;-63
2022/03/21 00:42:59;;;;;;;45.93;28.23;;;;;;;;;;780713;178;918387;-62
2022/03/21 00:45:25;;;;;;;50.37;32.70;;;;;;;;;;770234;179;919387;-64
2022/03/21 00:47:51;;;;;;;50.60;31.03;;;;;;;;;;768450;179;920044;-60
2022/03/21 00:50:17;;;;;;;43.57;29.43;;;;;;;;;;781921;175;919062;-61
2022/03/21 00:52:51;;;;;;;51.80;31.30;;;;;;;;;;776409;177;919645;-62
2022/03/21 00:55:17;;;;;;;55.80;33.15;;;;;;;;;;765303;182;1020908;-62
2022/03/21 00:57:43;;;;;;;55.13;30.97;;;;;;;;;;765805;182;1020810;-60
2022/03/21 01:00:10;;;;;;;41.47;28.00;;;;;;;;;;771197;179;920478;-61
2022/03/21 01:02:36;;;;;;;48.73;31.23;;;;;;;;;;780299;179;919448;-61
2022/03/21 01:05:02;;;;;;;52.37;32.77;;;;;;;;;;781013;177;919969;-61
2022/03/21 01:07:28;;;;;;;48.97;30.13;;;;;;;;;;767840;180;919736;-61
2022/03/21 01:09:54;;;;;;;48.10;29.27;;;;;;;;;;769891;180;917431;-61
2022/03/21 01:12:20;;;;;;;46.83;27.00;;;;;;;;;;766110;180;920008;-62
2022/03/21 01:14:46;;;;;;;47.30;31.00;;;;;;;;;;764655;180;920544;-61
2022/03/21 01:17:12;;;;;;;50.53;29.83;;;;;;;;;;768402;180;916198;-61
2022/03/21 01:19:37;;;;;;;48.30;31.73;;;;;;;;;;774544;179;920076;-61
2022/03/21 01:22:06;;;;;;;46.27;28.73;;;;;;;;;;782896;179;919238;-61
2022/03/21 01:24:29;;;;;;;49.87;30.50;;;;;;;;;;772101;179;920073;-62
2022/03/21 01:26:55;;;;;;;48.63;29.10;;;;;;;;;;780386;179;920071;-61
2022/03/21 01:29:21;;;;;;;41.70;28.70;;;;;;;;;;772522;178;920090;-61
2022/03/21 01:31:47;;;;;;;43.85;30.88;;;;;;;;;;765889;179;918808;-61
2022/03/21 01:34:13;;;;;;;44.17;29.30;;;;;;;;;;775027;179;713188;-63
2022/03/21 01:36:39;;;;;;;46.13;29.23;;;;;;;;;;772399;178;920214;-61
2022/03/21 01:39:05;;;;;;;48.60;28.57;;;;;;;;;;773558;178;918801;-61
2022/03/21 01:41:30;;;;;;;44.40;28.67;;;;;;;;;;780524;179;919803;-62
2022/03/21 01:43:56;;;;;;;42.38;29.15;;;;;;;;;;782191;177;926673;-61
2022/03/21 01:46:22;;;;;;;46.17;30.50;;;;;;;;;;780273;177;919417;-60
2022/03/21 01:48:48;;;;;;;49.00;29.60;;;;;;;;;;776931;180;920091;-61
2022/03/21 01:51:14;;;;;;;53.73;31.90;;;;;;;;;;775962;180;919947;-61
2022/03/21 01:56:12;;;;;;;51.17;29.47;;;;;;;;;;780243;179;919257;-62
2022/03/21 01:58:38;;;;;;;43.92;29.85;;;;;;;;;;785989;175;919615;-61
2022/03/21 02:01:03;;;;;;;46.90;31.70;;;;;;;;;;767558;179;919780;-60
2022/03/21 02:03:29;;;;;;;46.20;28.40;;;;;;;;;;776888;179;919264;-61
2022/03/21 02:05:55;;;;;;;41.80;27.87;;;;;;;;;;780732;180;919233;-60
2022/03/21 02:08:21;;;;;;;50.10;29.60;;;;;;;;;;782068;177;919478;-61
2022/03/21 02:10:48;;;;;;;42.23;28.77;;;;;;;;;;775354;181;989327;-61
2022/03/21 02:13:13;;;;;;;46.17;28.00;;;;;;;;;;771207;178;919743;-64
2022/03/21 02:15:39;;;;;;;51.07;30.40;;;;;;;;;;779385;178;919139;-61
2022/03/21 02:18:04;;;;;;;50.63;29.10;;;;;;;;;;770572;179;919515;-61
2022/03/21 02:20:31;;;;;;;44.53;27.77;;;;;;;;;;766436;179;918960;-61
2022/03/21 02:23:01;;;;;;;42.27;27.30;;;;;;;;;;774598;179;919228;-60
2022/03/21 02:25:35;;;;;;;44.23;27.50;;;;;;;;;;768839;181;857780;-61
2022/03/21 02:28:01;;;;;;;50.90;29.07;;;;;;;;;;767319;179;921365;-62
2022/03/21 02:30:27;;;;;;;45.07;31.00;;;;;;;;;;769794;178;919065;-61
2022/03/21 02:32:53;;;;;;;45.27;29.20;;;;;;;;;;781892;178;918757;-61
2022/03/21 02:35:18;;;;;;;46.50;30.40;;;;;;;;;;776597;179;919985;-61
2022/03/21 02:37:44;;;;;;;51.23;28.27;;;;;;;;;;777869;179;919647;-61
2022/03/21 02:40:10;;;;;;;51.80;29.40;;;;;;;;;;781377;179;921535;-61
2022/03/21 02:42:36;;;;;;;45.20;28.37;;;;;;;;;;776190;179;920007;-62
2022/03/21 02:45:02;;;;;;;46.97;27.13;;;;;;;;;;770683;180;1021515;-61
2022/03/21 02:47:28;;;;;;;42.27;24.43;;;;;;;;;;767183;180;919199;-62
2022/03/21 02:49:53;;;;;;;45.63;27.77;;;;;;;;;;771439;180;918129;-62
2022/03/21 02:52:19;;;;;;;51.80;30.23;;;;;;;;;;765470;180;919285;-62
2022/03/21 02:54:45;;;;;;;45.73;28.70;;;;;;;;;;762308;180;919194;-62
2022/03/21 02:57:11;;;;;;;43.67;28.00;;;;;;;;;;767899;182;918860;-61
2022/03/21 02:59:37;;;;;;;40.90;27.10;;;;;;;;;;763804;180;918464;-62
2022/03/21 03:02:03;;;;;;;43.73;27.00;;;;;;;;;;768710;182;930994;-62
2022/03/21 03:04:29;;;;;;;38.30;25.47;;;;;;;;;;777915;179;919557;-61
2022/03/21 03:06:55;;;;;;;46.13;27.97;;;;;;;;;;781165;177;918827;-61
2022/03/21 03:09:21;;;;;;;52.33;30.83;;;;;;;;;;776336;179;919638;-61
2022/03/21 03:11:46;;;;;;;44.40;27.63;;;;;;;;;;773313;180;918807;-62
2022/03/21 03:14:12;;;;;;;43.53;27.17;;;;;;;;;;775746;180;921821;-61
2022/03/21 03:16:38;;;;;;;42.20;27.37;;;;;;;;;;758114;182;918822;-60
2022/03/21 03:19:04;;;;;;;44.43;28.10;;;;;;;;;;768931;182;920540;-62
2022/03/21 03:21:33;;;;;;;47.03;28.87;;;;;;;;;;774406;181;867933;-62
2022/03/21 03:23:59;;;;;;;44.97;26.73;;;;;;;;;;771806;176;923430;-61
2022/03/21 03:26:24;;;;;;;38.30;26.00;;;;;;;;;;773312;177;935735;-61
2022/03/21 03:28:50;;;;;;;48.43;29.10;;;;;;;;;;781074;180;817263;-62
2022/03/21 03:31:16;;;;;;;44.10;26.60;;;;;;;;;;780213;178;919336;-62
2022/03/21 03:33:42;;;;;;;49.73;27.30;;;;;;;;;;780573;179;919126;-62
2022/03/21 03:36:08;;;;;;;41.13;24.27;;;;;;;;;;769931;180;944200;-61
2022/03/21 03:38:34;;;;;;;42.97;26.97;;;;;;;;;;780144;179;919340;-62
2022/03/21 03:41:00;;;;;;;45.67;28.60;;;;;;;;;;769081;180;919817;-61
2022/03/21 03:43:26;;;;;;;46.63;27.50;;;;;;;;;;765792;180;919965;-62
2022/03/21 03:45:52;;;;;;;43.77;27.50;;;;;;;;;;778472;180;920146;-62
2022/03/21 03:48:17;;;;;;;40.63;27.67;;;;;;;;;;777301;178;919347;-62
2022/03/21 03:50:43;;;;;;;42.10;25.10;;;;;;;;;;766523;180;919596;-62
2022/03/21 03:53:09;;;;;;;40.70;24.43;;;;;;;;;;770017;180;1019973;-62
2022/03/21 03:55:35;;;;;;;39.87;23.50;;;;;;;;;;769105;179;920039;-61
2022/03/21 03:58:00;;;;;;;38.67;24.30;;;;;;;;;;772370;179;919998;-61
2022/03/21 04:00:26;;;;;;;35.97;22.67;;;;;;;;;;779865;177;919317;-66
2022/03/21 04:05:24;;;;;;;36.73;22.57;;;;;;;;;;767305;182;918871;-62
2022/03/21 04:07:50;;;;;;;38.05;23.40;;;;;;;;;;771119;178;919294;-61
2022/03/21 04:10:15;;;;;;;39.07;22.67;;;;;;;;;;783141;178;917686;-62
2022/03/21 04:12:43;;;;;;;38.27;21.77;;;;;;;;;;772616;178;919382;-61
2022/03/21 04:15:07;;;;;;;42.97;27.02;;;;;;;;;;769175;180;964165;-63
2022/03/21 04:17:35;;;;;;;40.38;26.70;;;;;;;;;;773269;179;918760;-60
2022/03/21 04:20:00;;;;;;;52.70;30.83;;;;;;;;;;778084;179;920288;-61
2022/03/21 04:22:26;;;;;;;42.53;28.63;;;;;;;;;;771686;178;917494;-61
2022/03/21 04:24:52;;;;;;;46.67;27.10;;;;;;;;;;773636;176;915900;-61
2022/03/21 04:27:18;;;;;;;49.23;30.73;;;;;;;;;;785474;177;922104;-62
2022/03/21 04:29:43;;;;;;;63.00;42.57;;;;;;;;;;780889;177;911012;-62
2022/03/21 04:32:09;;;;;;;57.77;38.97;;;;;;;;;;776526;179;636098;-62
2022/03/21 04:34:35;;;;;;;95.87;58.07;;;;;;;;;;780396;179;617334;-63
2022/03/21 04:37:02;;;;;;;40.77;26.57;;;;;;;;;;772190;178;919094;-62
2022/03/21 04:39:27;;;;;;;42.07;26.43;;;;;;;;;;766191;179;919198;-62
2022/03/21 04:41:53;;;;;;;40.37;26.57;;;;;;;;;;773420;179;941507;-62
2022/03/21 04:44:18;;;;;;;40.63;26.67;;;;;;;;;;774506;179;919599;-63
2022/03/21 04:46:44;;;;;;;193.65;96.05;;;;;;;;;;767909;179;1018600;-61
2022/03/21 04:49:10;;;;;;;38.13;22.83;;;;;;;;;;769013;179;915679;-62
2022/03/21 04:51:36;;;;;;;38.90;24.27;;;;;;;;;;785409;177;816536;-62
2022/03/21 04:54:02;;;;;;;38.10;24.33;;;;;;;;;;769278;178;922484;-63
2022/03/21 04:56:28;;;;;;;33.30;21.70;;;;;;;;;;770338;178;920694;-61
2022/03/21 04:58:54;;;;;;;44.47;28.23;;;;;;;;;;781737;178;917784;-62
2022/03/21 05:01:19;;;;;;;43.40;30.27;;;;;;;;;;771619;180;919109;-63
2022/03/21 05:03:45;;;;;;;39.67;23.30;;;;;;;;;;769603;182;624765;-62
2022/03/21 05:06:12;;;;;;;36.43;24.53;;;;;;;;;;770191;181;625829;-62
2022/03/21 05:08:37;;;;;;;38.93;24.30;;;;;;;;;;779566;179;630779;-63
2022/03/21 05:11:03;;;;;;;35.77;22.33;;;;;;;;;;781477;178;635836;-63
2022/03/21 05:13:29;;;;;;;35.23;23.43;;;;;;;;;;778606;179;663339;-62
2022/03/21 05:15:55;;;;;;;35.27;23.60;;;;;;;;;;772616;180;634633;-62
2022/03/21 05:18:22;;;;;;;37.47;23.00;;;;;;;;;;769385;180;919473;-63
2022/03/21 05:20:47;;;;;;;34.27;23.40;;;;;;;;;;767595;178;627079;-62
2022/03/21 05:35:54;;;;;;;41.43;26.70;;;;;;;;;;775558;179;921129;-63
2022/03/21 05:38:19;;;;;;;41.23;26.60;;;;;;;;;;775862;179;919361;-64
2022/03/21 05:40:44;;;;;;;43.27;25.30;;;;;;;;;;770757;180;919904;-62
2022/03/21 05:43:10;;;;;;;35.22;19.95;;;;;;;;;;777277;179;919166;-62
2022/03/21 05:45:36;;;;;;;28.27;20.40;;;;;;;;;;771143;180;919729;-63
2022/03/21 05:50:34;;;;;;;43.77;25.60;;;;;;;;;;768985;179;919975;-63
2022/03/21 05:53:00;;;;;;;40.23;22.53;;;;;;;;;;785843;178;918254;-64
2022/03/21 05:55:26;;;;;;;46.50;27.30;;;;;;;;;;772621;179;1021810;-62
2022/03/21 05:57:52;;;;;;;41.83;20.67;;;;;;;;;;764552;180;1019073;-62
2022/03/21 06:00:20;;;;;;;36.00;23.47;;;;;;;;;;772494;180;919310;-62
2022/03/21 06:02:46;;;;;;;48.70;26.67;;;;;;;;;;779253;180;713678;-63
2022/03/21 06:05:12;;;;;;;35.30;20.73;;;;;;;;;;771454;180;920242;-62
2022/03/21 06:07:38;;;;;;;32.83;19.00;;;;;;;;;;779020;177;919867;-64
2022/03/21 06:10:04;;;;;;;30.47;17.70;;;;;;;;;;770942;180;919334;-62
2022/03/21 06:12:30;;;;;;;36.73;21.13;;;;;;;;;;768047;182;919752;-62
2022/03/21 06:14:56;;;;;;;105.27;56.70;;;;;;;;;;767277;180;928877;-63
2022/03/21 06:17:22;;;;;;;31.60;20.43;;;;;;;;;;775858;180;909518;-63
2022/03/21 06:19:48;;;;;;;28.60;16.30;;;;;;;;;;771366;180;920050;-63
2022/03/21 06:22:13;;;;;;;35.50;22.33;;;;;;;;;;772105;178;919439;-64
2022/03/21 06:24:39;;;;;;;52.60;38.28;;;;;;;;;;778422;176;919946;-63
2022/03/21 06:27:05;;;;;;;36.57;24.93;;;;;;;;;;773771;179;919369;-64
2022/03/21 06:29:31;;;;;;;24.90;15.50;;;;;;;;;;774510;176;919103;-64
2022/03/21 06:31:57;;;;;;;35.08;21.30;;;;;;;;;;770316;179;920329;-63
2022/03/21 06:34:23;;;;;;;43.97;24.40;;;;;;;;;;775621;180;922091;-62
2022/03/21 06:36:49;;;;;;;50.13;31.77;;;;;;;;;;775493;180;919260;-63
2022/03/21 06:39:15;;;;;;;30.10;19.23;;;;;;;;;;782383;178;653586;-63
2022/03/21 06:41:44;;;;;;;27.97;17.67;;;;;;;;;;780743;180;628695;-65
2022/03/21 06:44:06;;;;;;;43.07;27.07;;;;;;;;;;773503;181;647221;-62
2022/03/21 06:46:32;;;;;;;83.90;43.27;;;;;;;;;;780845;179;917905;-63
2022/03/21 06:48:58;;;;;;;28.50;19.03;;;;;;;;;;782863;180;920296;-63
2022/03/21 06:51:24;;;;;;;29.10;18.37;;;;;;;;;;777247;180;922555;-63
2022/03/21 06:53:50;;;;;;;27.20;17.40;;;;;;;;;;777641;180;923158;-63
2022/03/21 06:56:16;;;;;;;25.10;16.00;;;;;;;;;;778096;179;1017754;-63
2022/03/21 06:58:41;;;;;;;26.70;13.33;;;;;;;;;;782442;179;915559;-62
2022/03/21 07:01:07;;;;;;;32.20;23.53;;;;;;;;;;781095;178;919541;-63
2022/03/21 07:03:33;;;;;;;29.93;20.67;;;;;;;;;;775371;177;918592;-63
2022/03/21 07:05:59;;;;;;;43.73;23.97;;;;;;;;;;789163;177;628378;-64
2022/03/21 07:08:25;;;;;;;38.27;22.50;;;;;;;;;;787446;179;919236;-64
2022/03/21 07:10:51;;;;;;;37.20;21.67;;;;;;;;;;782275;179;918778;-64
2022/03/21 07:13:16;;;;;;;32.73;19.30;;;;;;;;;;773152;182;947261;-64
2022/03/21 07:15:43;;;;;;;32.42;17.90;;;;;;;;;;768427;180;919696;-64
2022/03/21 07:18:09;;;;;;;24.73;14.87;;;;;;;;;;768363;182;919857;-65
2022/03/21 07:20:35;;;;;;;28.80;16.60;;;;;;;;;;764215;180;919170;-66
2022/03/21 07:23:01;;;;;;;23.93;13.80;;;;;;;;;;780931;179;919313;-66
2022/03/21 07:25:26;;;;;;;24.25;12.95;;;;;;;;;;769535;181;918964;-65
2022/03/21 07:27:52;;;;;;;20.37;15.00;;;;;;;;;;768570;181;918874;-66
2022/03/21 07:30:18;;;;;;;21.50;13.07;;;;;;;;;;787625;179;629267;-66
2022/03/21 07:32:44;;;;;;;27.77;15.57;;;;;;;;;;785293;177;918788;-66
2022/03/21 07:35:10;;;;;;;29.58;20.12;;;;;;;;;;781255;177;919316;-66
2022/03/21 07:37:42;;;;;;;27.70;16.20;;;;;;;;;;782864;179;919234;-65
2022/03/21 07:40:10;;;;;;;21.17;11.97;;;;;;;;;;784262;178;919325;-66
2022/03/21 07:42:34;;;;;;;24.23;16.37;;;;;;;;;;771914;180;918693;-66
2022/03/21 07:47:32;;;;;;;27.03;14.77;;;;;;;;;;777282;180;878016;-64
2022/03/21 07:49:59;;;;;;;44.43;21.90;;;;;;;;;;768796;180;918971;-66
2022/03/21 07:52:23;;;;;;;30.30;16.50;;;;;;;;;;769095;180;920587;-66
2022/03/21 07:54:52;;;;;;;29.43;16.80;;;;;;;;;;767408;180;919266;-66
2022/03/21 07:57:17;;;;;;;21.23;14.33;;;;;;;;;;771473;179;919268;-66
2022/03/21 07:59:43;;;;;;;25.70;16.57;;;;;;;;;;771937;177;919903;-63
2022/03/21 08:02:09;;;;;;;30.37;19.40;;;;;;;;;;772340;179;1123466;-66
2022/03/21 08:04:35;;;;;;;20.60;12.73;;;;;;;;;;782452;177;917376;-64
2022/03/21 08:07:01;;;;;;;28.05;20.25;;;;;;;;;;770331;180;919298;-66
2022/03/21 08:09:27;;;;;;;22.10;12.00;;;;;;;;;;769853;180;920457;-65
2022/03/21 08:11:54;;;;;;;23.10;13.47;;;;;;;;;;774537;180;919147;-66
2022/03/21 08:14:20;;;;;;;42.73;21.00;;;;;;;;;;774178;179;943515;-66
2022/03/21 08:16:46;;;;;;;27.83;14.63;;;;;;;;;;777980;177;919068;-65
2022/03/21 08:19:12;;;;;;;19.23;11.97;;;;;;;;;;773916;179;919419;-65
2022/03/21 08:21:38;;;;;;;38.10;17.70;;;;;;;;;;781525;179;618620;-64
2022/03/21 08:24:04;;;;;;;24.63;11.00;;;;;;;;;;769505;179;917440;-65
2022/03/21 08:26:30;;;;;;;18.03;11.23;;;;;;;;;;771459;179;915665;-65
2022/03/21 08:28:56;;;;;;;29.67;17.07;;;;;;;;;;775591;180;916636;-64
2022/03/21 08:31:21;;;;;;;17.37;11.43;;;;;;;;;;774883;180;919833;-64
2022/03/21 08:33:47;;;;;;;15.88;10.30;;;;;;;;;;772384;179;914614;-64
2022/03/21 08:36:14;;;;;;;24.40;14.40;;;;;;;;;;778950;180;802139;-64
2022/03/21 08:38:40;;;;;;;25.80;14.43;;;;;;;;;;771779;179;925668;-64
2022/03/21 08:41:06;;;;;;;16.13;11.57;;;;;;;;;;766285;178;1236798;-65
2022/03/21 08:43:32;;;;;;;18.30;12.40;;;;;;;;;;771968;179;1018844;-64
2022/03/21 08:45:58;;;;;;;19.23;10.83;;;;;;;;;;773868;178;915983;-64
2022/03/21 08:49:23;;;;;;;26.07;14.70;;;;;;;;;;772515;179;916850;-65
2022/03/21 08:50:49;;;;;;;30.23;17.20;;;;;;;;;;767216;179;1119262;-65
2022/03/21 08:53:15;;;;;;;32.37;19.97;;;;;;;;;;781134;178;913737;-65
2022/03/21 08:55:41;;;;;;;16.93;11.37;;;;;;;;;;774499;179;916177;-64
2022/03/21 08:58:07;;;;;;;16.33;9.47;;;;;;;;;;773143;179;928083;-65
2022/03/21 09:00:33;;;;;;;15.03;8.53;;;;;;;;;;775547;179;914654;-65
2022/03/21 09:02:59;;;;;;;17.83;10.47;;;;;;;;;;771251;179;920144;-65
2022/03/21 09:05:25;;;;;;;15.90;10.17;;;;;;;;;;773751;179;875800;-65
2022/03/21 09:07:50;;;;;;;17.40;9.30;;;;;;;;;;769058;179;1226264;-65
2022/03/21 09:10:18;;;;;;;17.83;10.73;;;;;;;;;;768040;175;919442;-65
2022/03/21 09:12:43;;;;;;;17.30;11.30;;;;;;;;;;762594;178;918666;-66
2022/03/21 09:15:08;;;;;;;16.27;9.13;;;;;;;;;;772666;177;919435;-65
2022/03/21 09:17:34;;;;;;;16.93;11.10;;;;;;;;;;779017;179;918860;-65
2022/03/21 09:20:00;;;;;;;14.23;8.03;;;;;;;;;;772734;179;921278;-66
2022/03/21 09:22:26;;;;;;;12.47;7.80;;;;;;;;;;774976;179;919648;-66
2022/03/21 09:24:52;;;;;;;9.50;6.93;;;;;;;;;;779963;179;905289;-66
2022/03/21 09:27:20;;;;;;;13.03;8.00;;;;;;;;;;774676;179;920209;-66
2022/03/21 09:29:43;;;;;;;14.27;8.33;;;;;;;;;;774367;178;918352;-65
2022/03/21 09:32:10;;;;;;;13.68;8.75;;;;;;;;;;773852;180;919854;-65
2022/03/21 09:34:39;;;;;;;14.70;7.13;;;;;;;;;;775657;177;918633;-66
2022/03/21 09:37:02;;;;;;;11.40;7.40;;;;;;;;;;761672;180;916005;-67
2022/03/21 09:39:27;;;;;;;12.80;6.87;;;;;;;;;;775102;178;637119;-67
2022/03/21 09:41:53;;;;;;;15.27;8.23;;;;;;;;;;787234;177;919422;-67
2022/03/21 09:44:19;;;;;;;10.90;8.27;;;;;;;;;;768503;181;813070;-66
2022/03/21 09:46:45;;;;;;;19.58;9.07;;;;;;;;;;770258;179;919132;-67
2022/03/21 09:49:11;;;;;;;12.00;8.63;;;;;;;;;;780330;179;922427;-64
2022/03/21 09:51:37;;;;;;;13.90;8.47;;;;;;;;;;783137;177;631465;-67
2022/03/21 09:54:02;;;;;;;12.37;6.87;;;;;;;;;;776045;179;887181;-66
2022/03/21 09:56:28;;;;;;;14.53;8.03;;;;;;;;;;777274;178;877451;-66
2022/03/21 09:58:59;;;;;;;11.27;7.00;;;;;;;;;;776839;178;919965;-67
2022/03/21 10:01:25;;;;;;;14.13;7.93;;;;;;;;;;779274;179;632359;-68
2022/03/21 10:03:51;;;;;;;9.17;5.67;;;;;;;;;;769673;179;918423;-66
2022/03/21 10:06:33;;;;;;;9.07;6.33;;;;;;;;;;777887;180;919649;-67
2022/03/21 10:09:04;;;;;;;12.03;7.30;;;;;;;;;;775163;182;918724;-68
2022/03/21 10:11:30;;;;;;;10.87;7.80;;;;;;;;;;771753;180;918365;-66
2022/03/21 10:13:56;;;;;;;10.90;7.57;;;;;;;;;;772511;180;919739;-67
2022/03/21 10:16:21;;;;;;;11.43;6.50;;;;;;;;;;770454;180;919364;-68
2022/03/21 10:19:00;;;;;;;11.17;7.13;;;;;;;;;;781302;179;919213;-66
2022/03/21 10:21:25;;;;;;;10.93;6.60;;;;;;;;;;771221;178;919729;-67
2022/03/21 10:23:59;;;;;;;12.43;8.30;;;;;;;;;;766679;180;919430;-67
2022/03/21 10:26:26;;;;;;;10.27;7.13;;;;;;;;;;771019;180;918552;-66
2022/03/21 10:28:51;;;;;;;14.00;7.85;;;;;;;;;;775581;179;918936;-68
2022/03/21 10:31:17;;;;;;;11.27;7.27;;;;;;;;;;770447;180;918627;-67
2022/03/21 10:33:43;;;;;;;12.95;7.75;;;;;;;;;;769280;179;1021181;-67
2022/03/21 10:36:12;;;;;;;10.60;7.40;;;;;;;;;;777289;179;918947;-67
2022/03/21 10:38:35;;;;;;;13.80;7.53;;;;;;;;;;772728;179;928833;-67
2022/03/21 10:41:09;;;;;;;12.03;7.80;;;;;;;;;;778335;180;677701;-67
2022/03/21 10:43:35;;;;;;;12.50;7.37;;;;;;;;;;769207;180;920032;-68
2022/03/21 10:46:02;;;;;;;10.35;6.65;;;;;;;;;;775499;180;919748;-67
2022/03/21 10:48:29;;;;;;;10.97;8.07;;;;;;;;;;774325;179;703400;-67
2022/03/21 10:50:54;;;;;;;11.50;8.30;;;;;;;;;;773696;179;921918;-67
2022/03/21 10:53:20;;;;;;;13.07;7.43;;;;;;;;;;776557;179;876199;-67
2022/03/21 10:55:46;;;;;;;11.02;7.68;;;;;;;;;;774440;179;816849;-68
2022/03/21 10:58:12;;;;;;;12.10;7.70;;;;;;;;;;778832;176;1122975;-68
2022/03/21 11:00:38;;;;;;;13.20;8.60;;;;;;;;;;772322;179;922233;-68
2022/03/21 11:03:15;;;;;;;15.60;7.73;;;;;;;;;;776818;180;915563;-68
2022/03/21 11:05:39;;;;;;;13.47;6.60;;;;;;;;;;766625;180;916238;-70
2022/03/21 11:08:05;;;;;;;13.73;7.93;;;;;;;;;;771781;178;915778;-67
2022/03/21 11:10:31;;;;;;;10.33;6.23;;;;;;;;;;770091;180;919729;-67
2022/03/21 11:12:57;;;;;;;13.90;9.20;;;;;;;;;;779896;178;730833;-67
2022/03/21 11:15:23;;;;;;;15.50;7.73;;;;;;;;;;777446;178;906505;-68
2022/03/21 11:17:49;;;;;;;12.93;8.20;;;;;;;;;;770330;179;1123037;-66
2022/03/21 11:20:15;;;;;;;15.73;7.50;;;;;;;;;;776621;179;918809;-67
2022/03/21 11:22:40;;;;;;;9.73;6.73;;;;;;;;;;771618;179;848704;-67
2022/03/21 11:25:06;;;;;;;12.10;6.90;;;;;;;;;;771559;179;925459;-66
2022/03/21 11:27:47;;;;;;;11.03;6.87;;;;;;;;;;769050;179;919753;-67
2022/03/21 11:30:28;;;;;;;12.33;7.80;;;;;;;;;;775696;177;909532;-67
2022/03/21 11:32:55;;;;;;;14.27;7.40;;;;;;;;;;760948;182;1021207;-67
2022/03/21 11:35:24;;;;;;;10.53;6.43;;;;;;;;;;768965;180;919170;-67
2022/03/21 11:37:50;;;;;;;9.70;6.30;;;;;;;;;;775351;178;918801;-67
2022/03/21 11:40:33;;;;;;;13.30;7.60;;;;;;;;;;775939;177;919396;-67
2022/03/21 11:43:05;;;;;;;11.70;7.65;;;;;;;;;;770487;179;919190;-67
2022/03/21 11:45:32;;;;;;;10.73;7.23;;;;;;;;;;776951;177;918168;-67
2022/03/21 11:48:04;;;;;;;13.23;7.70;;;;;;;;;;771864;179;918787;-67
2022/03/21 11:50:29;;;;;;;9.88;6.95;;;;;;;;;;770416;180;919621;-67
2022/03/21 11:53:01;;;;;;;10.37;6.63;;;;;;;;;;771656;179;918785;-68
2022/03/21 11:55:28;;;;;;;14.47;7.00;;;;;;;;;;774528;179;919587;-68
2022/03/21 11:57:53;;;;;;;15.13;6.97;;;;;;;;;;777291;179;625335;-68
2022/03/21 12:00:25;;;;;;;9.53;6.70;;;;;;;;;;771847;177;919865;-67
2022/03/21 12:03:00;;;;;;;13.40;7.00;;;;;;;;;;770126;179;919540;-67
2022/03/21 12:05:31;;;;;;;13.30;8.30;;;;;;;;;;773687;177;921235;-67
2022/03/21 12:07:58;;;;;;;9.90;7.00;;;;;;;;;;770668;182;919858;-68
2022/03/21 12:10:27;;;;;;;11.17;6.87;;;;;;;;;;771600;179;919334;-68
2022/03/21 12:12:53;;;;;;;10.70;7.77;;;;;;;;;;774860;179;919100;-68
2022/03/21 12:15:30;;;;;;;22.85;8.13;;;;;;;;;;771541;178;989944;-68
2022/03/21 12:17:55;;;;;;;11.87;7.53;;;;;;;;;;766109;182;918433;-68
2022/03/21 12:20:21;;;;;;;14.32;7.53;;;;;;;;;;771962;178;919208;-67
2022/03/21 12:22:47;;;;;;;13.30;7.70;;;;;;;;;;767986;178;940174;-69
2022/03/21 12:25:14;;;;;;;11.93;8.10;;;;;;;;;;781342;176;920674;-67
2022/03/21 12:27:40;;;;;;;9.27;6.93;;;;;;;;;;772295;178;919020;-68
2022/03/21 12:30:12;;;;;;;11.53;6.80;;;;;;;;;;771722;179;1025060;-68
2022/03/21 12:32:39;;;;;;;10.00;6.90;;;;;;;;;;775824;180;1034189;-68
2022/03/21 12:35:06;;;;;;;13.47;9.20;;;;;;;;;;781871;177;712239;-68
2022/03/21 12:37:46;;;;;;;10.98;6.90;;;;;;;;;;780975;177;919865;-69
2022/03/21 12:40:12;;;;;;;25.33;13.40;;;;;;;;;;777675;179;919511;-67
2022/03/21 12:42:39;;;;;;;12.40;8.30;;;;;;;;;;769909;179;923855;-68
2022/03/21 12:45:05;;;;;;;11.50;7.27;;;;;;;;;;770706;180;919422;-67
2022/03/21 12:47:31;;;;;;;11.57;7.37;;;;;;;;;;770492;178;919486;-68
2022/03/21 12:49:57;;;;;;;12.43;8.10;;;;;;;;;;772209;177;919208;-68
2022/03/21 12:52:25;;;;;;;23.73;14.20;;;;;;;;;;768862;179;1226498;-68
2022/03/21 12:54:51;;;;;;;13.57;7.40;;;;;;;;;;777883;179;1021647;-69
2022/03/21 12:57:16;;;;;;;12.37;7.63;;;;;;;;;;775446;179;952283;-68
2022/03/21 12:59:42;;;;;;;12.00;7.67;;;;;;;;;;775886;179;919329;-68
2022/03/21 13:02:08;;;;;;;13.50;8.07;;;;;;;;;;771499;180;945211;-68
2022/03/21 13:12:11;;;;;;;11.80;8.40;;;;;;;;;;768101;180;920761;-68
2022/03/21 13:14:37;;;;;;;13.90;8.57;;;;;;;;;;785253;177;917526;-70
2022/03/21 13:17:05;;;;;;;18.33;11.90;;;;;;;;;;767753;179;919969;-67
2022/03/21 13:19:29;;;;;;;16.65;10.60;;;;;;;;;;771537;180;961314;-68
2022/03/21 13:21:55;;;;;;;12.93;8.20;;;;;;;;;;784218;179;918304;-69
2022/03/21 13:24:26;;;;;;;12.30;8.27;;;;;;;;;;773950;179;918913;-69
2022/03/21 13:26:52;;;;;;;14.73;8.20;;;;;;;;;;775985;179;921697;-68
2022/03/21 13:29:18;;;;;;;11.33;7.57;;;;;;;;;;771486;180;920693;-69
2022/03/21 13:31:44;;;;;;;12.27;7.10;;;;;;;;;;772696;180;920837;-69
2022/03/21 13:34:10;;;;;;;15.10;8.30;;;;;;;;;;773750;179;637616;-68
2022/03/21 13:36:40;;;;;;;40.43;19.80;;;;;;;;;;771986;180;642363;-68
2022/03/21 13:39:23;;;;;;;13.07;8.40;;;;;;;;;;779979;179;919420;-69
2022/03/21 13:41:51;;;;;;;15.80;8.83;;;;;;;;;;776599;179;905115;-68
2022/03/21 13:44:16;;;;;;;14.93;8.27;;;;;;;;;;776965;179;916111;-69
2022/03/21 13:46:42;;;;;;;12.17;8.20;;;;;;;;;;769425;180;920825;-70
2022/03/21 13:49:08;;;;;;;11.50;7.75;;;;;;;;;;766610;177;915706;-68
2022/03/21 13:51:36;;;;;;;13.63;9.80;;;;;;;;;;783284;177;975219;-68
2022/03/21 13:54:09;;;;;;;11.93;8.25;;;;;;;;;;773803;178;919388;-68
2022/03/21 13:56:34;;;;;;;11.97;7.53;;;;;;;;;;771996;180;918951;-68
2022/03/21 13:59:07;;;;;;;12.30;7.50;;;;;;;;;;776413;179;918083;-67
2022/03/21 14:01:33;;;;;;;13.77;8.90;;;;;;;;;;782082;176;917974;-68
2022/03/21 14:04:00;;;;;;;11.82;7.87;;;;;;;;;;767398;180;1021342;-68
2022/03/21 14:06:25;;;;;;;12.63;7.70;;;;;;;;;;767870;179;919140;-69
2022/03/21 14:08:57;;;;;;;11.23;7.73;;;;;;;;;;784400;174;918705;-68
2022/03/21 14:11:23;;;;;;;13.73;8.20;;;;;;;;;;785217;179;918433;-67
2022/03/21 14:13:49;;;;;;;12.07;8.00;;;;;;;;;;773718;177;919259;-69
2022/03/21 14:16:15;;;;;;;17.93;8.10;;;;;;;;;;767477;179;917990;-68
2022/03/21 14:18:56;;;;;;;12.83;8.43;;;;;;;;;;773408;181;919941;-68
2022/03/21 14:21:22;;;;;;;17.33;10.87;;;;;;;;;;777732;179;918637;-69
2022/03/21 14:23:47;;;;;;;16.40;9.03;;;;;;;;;;772532;176;926581;-68
2022/03/21 14:28:46;;;;;;;15.00;9.13;;;;;;;;;;771389;179;916280;-67
2022/03/21 14:31:11;;;;;;;18.77;11.00;;;;;;;;;;778025;180;919045;-68
2022/03/21 14:33:37;;;;;;;13.90;8.60;;;;;;;;;;766859;177;921422;-68
2022/03/21 14:36:04;;;;;;;21.00;9.27;;;;;;;;;;770067;180;919154;-67
2022/03/21 14:38:30;;;;;;;17.23;8.93;;;;;;;;;;774923;179;918473;-68